sensor_id;sensor_type;location;lat;lon;timestamp;pressure;altitude;pressure_sealevel;temperature;humidity
57562;BME280;43397;51.530;5.974;2023-04-29T00:01:16;75733.13;;;-145.90;53.13
57562;BME280;43397;51.530;5.974;2023-04-29T00:03:42;75716.94;;;-145.90;53.17
57562;BME280;43397;51.530;5.974;2023-04-29T00:06:09;75700.72;;;-145.90;52.40
57562;BME280;43397;51.530;5.974;2023-04-29T00:08:34;75763.53;;;-145.90;53.47
57562;BME280;43397;51.530;5.974;2023-04-29T00:11:00;75723.00;;;-145.90;53.03
57562;BME280;43397;51.530;5.974;2023-04-29T00:13:26;75698.69;;;-145.90;52.66
57562;BME280;43397;51.530;5.974;2023-04-29T00:15:52;75720.97;;;-145.90;53.05
57562;BME280;43397;51.530;5.974;2023-04-29T00:18:17;75737.19;;;-145.90;53.38
57562;BME280;43397;51.530;5.974;2023-04-29T00:20:43;75735.16;;;-145.90;53.34
57562;BME280;43397;51.530;5.974;2023-04-29T00:23:10;75802.06;;;-145.90;53.88
57562;BME280;43397;51.530;5.974;2023-04-29T00:25:36;75779.75;;;-145.90;53.74
57562;BME280;43397;51.530;5.974;2023-04-29T00:28:02;75826.38;;;-145.90;54.01
57562;BME280;43397;51.530;5.974;2023-04-29T00:30:27;75840.56;;;-145.90;54.19
57562;BME280;43397;51.530;5.974;2023-04-29T00:32:53;75854.75;;;-145.90;54.09
57562;BME280;43397;51.530;5.974;2023-04-29T00:35:19;75848.66;;;-145.90;54.40
57562;BME280;43397;51.530;5.974;2023-04-29T00:37:44;75834.47;;;-145.90;53.49
57562;BME280;43397;51.530;5.974;2023-04-29T00:40:12;75824.34;;;-145.90;53.20
57562;BME280;43397;51.530;5.974;2023-04-29T00:42:38;75785.84;;;-145.90;52.53
57562;BME280;43397;51.530;5.974;2023-04-29T00:45:04;75755.44;;;-145.90;51.97
57562;BME280;43397;51.530;5.974;2023-04-29T00:47:30;75864.88;;;-145.90;53.44
57562;BME280;43397;51.530;5.974;2023-04-29T00:49:55;75842.59;;;-145.90;53.12
57562;BME280;43397;51.530;5.974;2023-04-29T00:52:22;75838.53;;;-145.90;53.28
57562;BME280;43397;51.530;5.974;2023-04-29T00:54:47;75824.34;;;-145.90;52.46
57562;BME280;43397;51.530;5.974;2023-04-29T00:57:14;75731.13;;;-145.90;51.74
57562;BME280;43397;51.530;5.974;2023-04-29T00:59:40;75795.97;;;-145.90;51.91
57562;BME280;43397;51.530;5.974;2023-04-29T01:02:06;75864.88;;;-145.90;53.79
57562;BME280;43397;51.530;5.974;2023-04-29T01:04:31;75881.09;;;-145.90;54.21
57562;BME280;43397;51.530;5.974;2023-04-29T01:07:01;75844.59;;;-145.90;53.17
57562;BME280;43397;51.530;5.974;2023-04-29T01:09:49;75868.94;;;-145.90;53.87
57562;BME280;43397;51.530;5.974;2023-04-29T01:12:25;75879.06;;;-145.90;53.46
57562;BME280;43397;51.530;5.974;2023-04-29T01:15:04;75816.22;;;-145.90;52.44
57562;BME280;43397;51.530;5.974;2023-04-29T01:17:38;75814.22;;;-145.90;52.12
57562;BME280;43397;51.530;5.974;2023-04-29T01:20:06;75800.03;;;-145.90;51.86
57562;BME280;43397;51.530;5.974;2023-04-29T01:22:33;75844.59;;;-145.90;52.62
57562;BME280;43397;51.530;5.974;2023-04-29T01:25:00;75832.44;;;-145.90;52.30
57562;BME280;43397;51.530;5.974;2023-04-29T01:27:29;75858.78;;;-145.90;52.25
57562;BME280;43397;51.530;5.974;2023-04-29T01:30:00;75893.25;;;-145.90;52.92
57562;BME280;43397;51.530;5.974;2023-04-29T01:32:33;75907.44;;;-145.90;53.09
57562;BME280;43397;51.530;5.974;2023-04-29T01:35:10;75915.53;;;-145.90;53.46
57562;BME280;43397;51.530;5.974;2023-04-29T01:37:47;75893.25;;;-145.90;53.05
57562;BME280;43397;51.530;5.974;2023-04-29T01:40:19;75889.19;;;-145.90;52.84
57562;BME280;43397;51.530;5.974;2023-04-29T01:42:50;75875.00;;;-145.90;52.72
57562;BME280;43397;51.530;5.974;2023-04-29T01:45:21;75891.22;;;-145.90;52.91
57562;BME280;43397;51.530;5.974;2023-04-29T01:47:47;75925.69;;;-145.90;53.07
57562;BME280;43397;51.530;5.974;2023-04-29T01:50:17;75814.22;;;-145.90;51.27
57562;BME280;43397;51.530;5.974;2023-04-29T01:52:43;75885.16;;;-145.90;52.25
57562;BME280;43397;51.530;5.974;2023-04-29T01:55:09;75777.72;;;-145.90;50.39
57562;BME280;43397;51.530;5.974;2023-04-29T01:57:36;75808.13;;;-145.90;50.92
57562;BME280;43397;51.530;5.974;2023-04-29T02:00:01;75718.94;;;-145.90;49.14
57562;BME280;43397;51.530;5.974;2023-04-29T02:02:27;75664.22;;;-145.90;48.08
57562;BME280;43397;51.530;5.974;2023-04-29T02:04:53;75854.75;;;-145.90;51.04
57562;BME280;43397;51.530;5.974;2023-04-29T02:07:18;75804.06;;;-145.90;50.09
57562;BME280;43397;51.530;5.974;2023-04-29T02:09:44;75905.41;;;-145.90;51.92
57562;BME280;43397;51.530;5.974;2023-04-29T02:12:10;75844.59;;;-145.90;51.34
57562;BME280;43397;51.530;5.974;2023-04-29T02:14:37;75834.47;;;-145.90;51.44
57562;BME280;43397;51.530;5.974;2023-04-29T02:17:02;75771.66;;;-145.90;49.72
57562;BME280;43397;51.530;5.974;2023-04-29T02:19:28;75660.19;;;-145.90;47.81
57562;BME280;43397;51.530;5.974;2023-04-29T02:21:54;75814.22;;;-145.90;50.03
57562;BME280;43397;51.530;5.974;2023-04-29T02:24:19;75733.13;;;-145.90;49.72
57562;BME280;43397;51.530;5.974;2023-04-29T02:26:45;75842.59;;;-145.90;51.09
57562;BME280;43397;51.530;5.974;2023-04-29T02:29:11;75891.22;;;-145.90;51.88
57562;BME280;43397;51.530;5.974;2023-04-29T02:31:37;75848.66;;;-145.90;51.20
57562;BME280;43397;51.530;5.974;2023-04-29T02:34:03;75864.88;;;-145.90;51.36
57562;BME280;43397;51.530;5.974;2023-04-29T02:36:29;75937.84;;;-145.90;52.55
57562;BME280;43397;51.530;5.974;2023-04-29T02:38:55;75781.78;;;-145.90;49.85
57562;BME280;43397;51.530;5.974;2023-04-29T02:41:20;75747.31;;;-145.90;49.47
57562;BME280;43397;51.530;5.974;2023-04-29T02:43:46;75818.25;;;-145.90;50.49
57562;BME280;43397;51.530;5.974;2023-04-29T02:46:12;75891.22;;;-145.90;52.02
57562;BME280;43397;51.530;5.974;2023-04-29T02:48:39;75860.81;;;-145.90;51.45
57562;BME280;43397;51.530;5.974;2023-04-29T02:51:05;75919.59;;;-145.90;52.50
57562;BME280;43397;51.530;5.974;2023-04-29T02:53:30;75680.44;;;-145.90;48.10
57562;BME280;43397;51.530;5.974;2023-04-29T02:55:56;75733.13;;;-145.90;48.83
57562;BME280;43397;51.530;5.974;2023-04-29T02:58:21;75678.41;;;-145.90;47.85
57562;BME280;43397;51.530;5.974;2023-04-29T03:00:47;75779.75;;;-145.90;50.08
57562;BME280;43397;51.530;5.974;2023-04-29T03:03:13;75787.84;;;-145.90;49.50
57562;BME280;43397;51.530;5.974;2023-04-29T03:05:40;75753.41;;;-145.90;49.10
57562;BME280;43397;51.530;5.974;2023-04-29T03:08:05;75775.69;;;-145.90;49.21
57562;BME280;43397;51.530;5.974;2023-04-29T03:10:31;75824.34;;;-145.90;50.34
57562;BME280;43397;51.530;5.974;2023-04-29T03:12:57;75810.16;;;-145.90;49.65
57562;BME280;43397;51.530;5.974;2023-04-29T03:15:23;75842.59;;;-145.90;50.69
57562;BME280;43397;51.530;5.974;2023-04-29T03:17:48;75755.44;;;-145.90;49.33
57562;BME280;43397;51.530;5.974;2023-04-29T03:20:14;75637.88;;;-145.90;47.29
57562;BME280;43397;51.530;5.974;2023-04-29T03:22:41;75820.28;;;-145.90;50.18
57562;BME280;43397;51.530;5.974;2023-04-29T03:25:07;75793.94;;;-145.90;50.47
57562;BME280;43397;51.530;5.974;2023-04-29T03:27:33;75895.28;;;-145.90;51.53
57562;BME280;43397;51.530;5.974;2023-04-29T03:29:58;75832.44;;;-145.90;50.74
57562;BME280;43397;51.530;5.974;2023-04-29T03:32:24;75751.38;;;-145.90;49.61
57562;BME280;43397;51.530;5.974;2023-04-29T03:34:50;75822.31;;;-145.90;50.36
57562;BME280;43397;51.530;5.974;2023-04-29T03:37:15;75822.31;;;-145.90;50.02
57562;BME280;43397;51.530;5.974;2023-04-29T03:39:42;75706.78;;;-145.90;48.33
57562;BME280;43397;51.530;5.974;2023-04-29T03:42:08;75739.22;;;-145.90;48.56
57562;BME280;43397;51.530;5.974;2023-04-29T03:44:33;75741.25;;;-145.90;49.26
57562;BME280;43397;51.530;5.974;2023-04-29T03:46:59;75727.06;;;-145.90;49.02
57562;BME280;43397;51.530;5.974;2023-04-29T03:49:25;75751.38;;;-145.90;48.26
57562;BME280;43397;51.530;5.974;2023-04-29T03:51:50;75937.84;;;-145.90;51.85
57562;BME280;43397;51.530;5.974;2023-04-29T03:54:16;75925.69;;;-145.90;52.22
57562;BME280;43397;51.530;5.974;2023-04-29T03:56:43;75771.66;;;-145.90;48.88
57562;BME280;43397;51.530;5.974;2023-04-29T03:59:09;75718.94;;;-145.90;48.67
57562;BME280;43397;51.530;5.974;2023-04-29T04:01:35;75781.78;;;-145.90;49.14
57562;BME280;43397;51.530;5.974;2023-04-29T04:04:00;75777.72;;;-145.90;49.33
57562;BME280;43397;51.530;5.974;2023-04-29T04:06:26;75800.03;;;-145.90;49.45
57562;BME280;43397;51.530;5.974;2023-04-29T04:08:51;75966.22;;;-145.90;52.71
57562;BME280;43397;51.530;5.974;2023-04-29T04:11:17;75714.91;;;-145.90;48.29
57562;BME280;43397;51.530;5.974;2023-04-29T04:13:44;75879.06;;;-145.90;51.01
57562;BME280;43397;51.530;5.974;2023-04-29T04:16:10;75808.13;;;-145.90;50.04
57562;BME280;43397;51.530;5.974;2023-04-29T04:18:36;75856.78;;;-145.90;49.93
57562;BME280;43397;51.530;5.974;2023-04-29T04:21:04;75856.78;;;-145.90;50.09
57562;BME280;43397;51.530;5.974;2023-04-29T04:23:30;75739.22;;;-145.90;48.48
57562;BME280;43397;51.530;5.974;2023-04-29T04:25:56;75753.41;;;-145.90;48.43
57562;BME280;43397;51.530;5.974;2023-04-29T04:28:21;75850.69;;;-145.90;50.20
57562;BME280;43397;51.530;5.974;2023-04-29T04:30:48;75840.56;;;-145.90;50.12
57562;BME280;43397;51.530;5.974;2023-04-29T04:33:14;75838.53;;;-145.90;49.65
57562;BME280;43397;51.530;5.974;2023-04-29T04:35:39;75832.44;;;-145.90;49.67
57562;BME280;43397;51.530;5.974;2023-04-29T04:38:05;76000.69;;;-145.90;52.52
57562;BME280;43397;51.530;5.974;2023-04-29T04:40:31;75824.34;;;-145.90;49.55
57562;BME280;43397;51.530;5.974;2023-04-29T04:42:56;75846.63;;;-145.90;50.07
57562;BME280;43397;51.530;5.974;2023-04-29T04:45:22;75852.72;;;-145.90;49.33
57562;BME280;43397;51.530;5.974;2023-04-29T04:47:49;75706.78;;;-145.90;47.20
57562;BME280;43397;51.530;5.974;2023-04-29T04:50:15;75765.56;;;-145.90;48.02
57562;BME280;43397;51.530;5.974;2023-04-29T04:52:40;75771.66;;;-145.90;48.15
57562;BME280;43397;51.530;5.974;2023-04-29T04:55:07;75808.13;;;-145.90;48.34
57562;BME280;43397;51.530;5.974;2023-04-29T04:57:33;75901.38;;;-145.90;50.07
57562;BME280;43397;51.530;5.974;2023-04-29T04:59:59;75846.63;;;-145.90;49.12
57562;BME280;43397;51.530;5.974;2023-04-29T05:02:24;75860.81;;;-145.90;49.25
57562;BME280;43397;51.530;5.974;2023-04-29T05:04:51;75858.78;;;-145.90;49.34
57562;BME280;43397;51.530;5.974;2023-04-29T05:07:17;75808.13;;;-145.90;48.32
57562;BME280;43397;51.530;5.974;2023-04-29T05:09:43;75958.13;;;-145.90;50.61
57562;BME280;43397;51.530;5.974;2023-04-29T05:12:08;75822.31;;;-145.90;48.63
57562;BME280;43397;51.530;5.974;2023-04-29T05:14:34;75838.53;;;-145.90;48.55
57562;BME280;43397;51.530;5.974;2023-04-29T05:17:00;75844.59;;;-145.90;49.01
57562;BME280;43397;51.530;5.974;2023-04-29T05:19:26;75883.13;;;-145.90;49.40
57562;BME280;43397;51.530;5.974;2023-04-29T05:21:53;75909.47;;;-145.90;49.73
57562;BME280;43397;51.530;5.974;2023-04-29T05:24:18;75976.34;;;-145.90;50.92
57562;BME280;43397;51.530;5.974;2023-04-29T05:26:44;75954.06;;;-145.90;50.90
57562;BME280;43397;51.530;5.974;2023-04-29T05:29:10;75970.28;;;-145.90;51.12
57562;BME280;43397;51.530;5.974;2023-04-29T05:31:35;75962.16;;;-145.90;51.23
57562;BME280;43397;51.530;5.974;2023-04-29T05:34:01;75950.00;;;-145.90;50.41
57562;BME280;43397;51.530;5.974;2023-04-29T05:36:27;75976.34;;;-145.90;50.90
57562;BME280;43397;51.530;5.974;2023-04-29T05:38:54;76039.19;;;-145.90;51.93
57562;BME280;43397;51.530;5.974;2023-04-29T05:41:19;75976.34;;;-145.90;51.07
57562;BME280;43397;51.530;5.974;2023-04-29T05:43:45;75919.59;;;-145.90;50.05
57562;BME280;43397;51.530;5.974;2023-04-29T05:46:11;75956.09;;;-145.90;50.47
57562;BME280;43397;51.530;5.974;2023-04-29T05:48:36;75980.41;;;-145.90;50.96
57562;BME280;43397;51.530;5.974;2023-04-29T05:51:02;76008.78;;;-145.90;50.92
57562;BME280;43397;51.530;5.974;2023-04-29T05:53:28;75980.41;;;-145.90;51.09
57562;BME280;43397;51.530;5.974;2023-04-29T05:55:55;76002.69;;;-145.90;51.60
57562;BME280;43397;51.530;5.974;2023-04-29T05:58:21;75972.31;;;-145.90;50.82
57562;BME280;43397;51.530;5.974;2023-04-29T06:00:46;76027.03;;;-145.90;51.75
57562;BME280;43397;51.530;5.974;2023-04-29T06:03:12;76002.69;;;-145.90;50.92
57562;BME280;43397;51.530;5.974;2023-04-29T06:05:38;76016.88;;;-145.90;51.29
57562;BME280;43397;51.530;5.974;2023-04-29T06:08:05;75935.81;;;-145.90;49.86
57562;BME280;43397;51.530;5.974;2023-04-29T06:10:30;75970.28;;;-145.90;50.60
57562;BME280;43397;51.530;5.974;2023-04-29T06:12:57;75950.00;;;-145.90;50.03
57562;BME280;43397;51.530;5.974;2023-04-29T06:15:23;75956.09;;;-145.90;49.94
57562;BME280;43397;51.530;5.974;2023-04-29T06:17:49;75958.13;;;-145.90;50.17
57562;BME280;43397;51.530;5.974;2023-04-29T06:20:14;75925.69;;;-145.90;49.87
57562;BME280;43397;51.530;5.974;2023-04-29T06:22:40;75960.13;;;-145.90;50.25
57562;BME280;43397;51.530;5.974;2023-04-29T06:25:06;75935.81;;;-145.90;49.67
57562;BME280;43397;51.530;5.974;2023-04-29T06:27:32;75960.13;;;-145.90;50.18
57562;BME280;43397;51.530;5.974;2023-04-29T06:29:59;76041.22;;;-145.90;51.35
57562;BME280;43397;51.530;5.974;2023-04-29T06:32:25;76004.72;;;-145.90;50.80
57562;BME280;43397;51.530;5.974;2023-04-29T06:34:50;75980.41;;;-145.90;50.46
57562;BME280;43397;51.530;5.974;2023-04-29T06:37:16;76008.78;;;-145.90;50.91
57562;BME280;43397;51.530;5.974;2023-04-29T06:39:42;75978.38;;;-145.90;50.57
57562;BME280;43397;51.530;5.974;2023-04-29T06:42:07;75960.13;;;-145.90;50.38
57562;BME280;43397;51.530;5.974;2023-04-29T06:44:33;76016.88;;;-145.90;51.20
57562;BME280;43397;51.530;5.974;2023-04-29T06:47:00;76000.69;;;-145.90;50.79
57562;BME280;43397;51.530;5.974;2023-04-29T06:49:26;76037.16;;;-145.90;51.02
57562;BME280;43397;51.530;5.974;2023-04-29T06:51:51;76027.03;;;-145.90;51.11
57562;BME280;43397;51.530;5.974;2023-04-29T06:54:17;75970.28;;;-145.90;49.87
57562;BME280;43397;51.530;5.974;2023-04-29T06:56:43;76000.69;;;-145.90;50.07
57562;BME280;43397;51.530;5.974;2023-04-29T06:59:08;75950.00;;;-145.90;50.00
57562;BME280;43397;51.530;5.974;2023-04-29T07:01:34;75960.13;;;-145.90;50.01
57562;BME280;43397;51.530;5.974;2023-04-29T07:04:01;75891.22;;;-145.90;49.09
57562;BME280;43397;51.530;5.974;2023-04-29T07:06:27;75911.50;;;-145.90;48.93
57562;BME280;43397;51.530;5.974;2023-04-29T07:08:52;75941.91;;;-145.90;49.64
57562;BME280;43397;51.530;5.974;2023-04-29T07:11:18;75956.09;;;-145.90;49.86
57562;BME280;43397;51.530;5.974;2023-04-29T07:13:44;75943.94;;;-145.90;49.26
57562;BME280;43397;51.530;5.974;2023-04-29T07:16:14;75941.91;;;-145.90;49.25
57562;BME280;43397;51.530;5.974;2023-04-29T07:18:39;75913.53;;;-145.90;49.56
57562;BME280;43397;51.530;5.974;2023-04-29T07:21:06;75866.91;;;-145.90;48.45
57562;BME280;43397;51.530;5.974;2023-04-29T07:23:32;75862.84;;;-145.90;48.28
57562;BME280;43397;51.530;5.974;2023-04-29T07:25:58;75891.22;;;-145.90;49.13
57562;BME280;43397;51.530;5.974;2023-04-29T07:28:23;75850.69;;;-145.90;49.05
57562;BME280;43397;51.530;5.974;2023-04-29T07:30:49;75814.22;;;-145.90;48.02
57562;BME280;43397;51.530;5.974;2023-04-29T07:33:15;75820.28;;;-145.90;48.10
57562;BME280;43397;51.530;5.974;2023-04-29T07:35:40;75761.50;;;-145.90;47.68
57562;BME280;43397;51.530;5.974;2023-04-29T07:38:07;75745.28;;;-145.90;47.18
57562;BME280;43397;51.530;5.974;2023-04-29T07:40:33;75747.31;;;-145.90;47.97
57562;BME280;43397;51.530;5.974;2023-04-29T07:42:59;75804.06;;;-145.90;47.40
57562;BME280;43397;51.530;5.974;2023-04-29T07:45:24;75753.41;;;-145.90;47.26
57562;BME280;43397;51.530;5.974;2023-04-29T07:47:50;75716.94;;;-145.90;46.80
57562;BME280;43397;51.530;5.974;2023-04-29T07:50:16;75765.56;;;-145.90;46.85
57562;BME280;43397;51.530;5.974;2023-04-29T07:52:41;75779.75;;;-145.90;47.51
57562;BME280;43397;51.530;5.974;2023-04-29T07:55:09;75759.50;;;-145.90;46.32
57562;BME280;43397;51.530;5.974;2023-04-29T07:57:34;75800.03;;;-145.90;46.66
57562;BME280;43397;51.530;5.974;2023-04-29T08:00:00;75751.38;;;-145.90;47.16
57562;BME280;43397;51.530;5.974;2023-04-29T08:02:25;75798.00;;;-145.90;46.71
57562;BME280;43397;51.530;5.974;2023-04-29T08:04:51;75826.38;;;-145.90;46.37
57562;BME280;43397;51.530;5.974;2023-04-29T08:07:17;75848.66;;;-145.90;47.39
57562;BME280;43397;51.530;5.974;2023-04-29T08:09:42;75763.53;;;-145.90;46.93
57562;BME280;43397;51.530;5.974;2023-04-29T08:12:09;75808.13;;;-145.90;46.47
57562;BME280;43397;51.530;5.974;2023-04-29T08:14:35;75850.69;;;-145.90;47.61
57562;BME280;43397;51.530;5.974;2023-04-29T08:17:01;75866.91;;;-145.90;48.14
57562;BME280;43397;51.530;5.974;2023-04-29T08:19:26;75875.00;;;-145.90;47.55
57562;BME280;43397;51.530;5.974;2023-04-29T08:21:52;75858.78;;;-145.90;47.05
57562;BME280;43397;51.530;5.974;2023-04-29T08:24:18;75769.63;;;-145.90;47.68
57562;BME280;43397;51.530;5.974;2023-04-29T08:26:43;75862.84;;;-145.90;47.75
57562;BME280;43397;51.530;5.974;2023-04-29T08:29:14;75802.06;;;-145.90;47.55
57562;BME280;43397;51.530;5.974;2023-04-29T08:31:39;75842.59;;;-145.90;46.26
57562;BME280;43397;51.530;5.974;2023-04-29T08:34:05;75848.66;;;-145.90;45.52
57562;BME280;43397;51.530;5.974;2023-04-29T08:36:31;75840.56;;;-145.90;47.07
57562;BME280;43397;51.530;5.974;2023-04-29T08:38:56;75850.69;;;-145.90;46.65
57562;BME280;43397;51.530;5.974;2023-04-29T08:41:22;75864.88;;;-145.90;47.15
57562;BME280;43397;51.530;5.974;2023-04-29T08:43:48;75798.00;;;-145.90;45.58
57562;BME280;43397;51.530;5.974;2023-04-29T08:46:15;75745.28;;;-145.90;46.45
57562;BME280;43397;51.530;5.974;2023-04-29T08:48:42;75751.38;;;-145.90;44.95
57562;BME280;43397;51.530;5.974;2023-04-29T08:51:10;75781.78;;;-145.90;44.52
57562;BME280;43397;51.530;5.974;2023-04-29T08:53:36;75875.00;;;-145.90;45.46
57562;BME280;43397;51.530;5.974;2023-04-29T08:56:08;75879.06;;;-145.90;45.76
57562;BME280;43397;51.530;5.974;2023-04-29T08:58:35;75759.50;;;-145.90;45.09
57562;BME280;43397;51.530;5.974;2023-04-29T09:01:06;75795.97;;;-145.90;44.63
57562;BME280;43397;51.530;5.974;2023-04-29T09:03:39;75747.31;;;-145.90;44.08
57562;BME280;43397;51.530;5.974;2023-04-29T09:06:09;75757.47;;;-145.90;44.95
57562;BME280;43397;51.530;5.974;2023-04-29T09:08:35;75793.94;;;-145.90;44.59
57562;BME280;43397;51.530;5.974;2023-04-29T09:11:02;75704.75;;;-145.90;44.82
57562;BME280;43397;51.530;5.974;2023-04-29T09:13:30;75842.59;;;-145.90;43.57
57562;BME280;43397;51.530;5.974;2023-04-29T09:15:55;75795.97;;;-145.90;44.19
57562;BME280;43397;51.530;5.974;2023-04-29T09:18:41;75787.84;;;-145.90;42.64
57562;BME280;43397;51.530;5.974;2023-04-29T09:21:12;75743.28;;;-145.90;43.73
57562;BME280;43397;51.530;5.974;2023-04-29T09:23:38;75806.09;;;-145.90;43.20
57562;BME280;43397;51.530;5.974;2023-04-29T09:26:04;75769.63;;;-145.90;44.19
57562;BME280;43397;51.530;5.974;2023-04-29T09:28:30;75694.63;;;-145.90;44.32
57562;BME280;43397;51.530;5.974;2023-04-29T09:30:55;75820.28;;;-145.90;42.87
57562;BME280;43397;51.530;5.974;2023-04-29T09:33:21;75824.34;;;-145.90;45.08
57562;BME280;43397;51.530;5.974;2023-04-29T09:35:48;75929.75;;;-145.90;44.01
57562;BME280;43397;51.530;5.974;2023-04-29T09:38:14;75822.31;;;-145.90;44.76
57562;BME280;43397;51.530;5.974;2023-04-29T09:40:41;75889.19;;;-145.90;45.70
57562;BME280;43397;51.530;5.974;2023-04-29T09:43:12;75872.97;;;-145.90;44.78
57562;BME280;43397;51.530;5.974;2023-04-29T09:45:38;75824.34;;;-145.90;44.94
57562;BME280;43397;51.530;5.974;2023-04-29T09:48:05;75897.31;;;-145.90;44.27
57562;BME280;43397;51.530;5.974;2023-04-29T09:50:31;75826.38;;;-145.90;44.45
57562;BME280;43397;51.530;5.974;2023-04-29T09:52:58;75812.19;;;-145.90;43.81
57562;BME280;43397;51.530;5.974;2023-04-29T09:55:24;75913.53;;;-145.90;44.89
57562;BME280;43397;51.530;5.974;2023-04-29T09:57:49;75800.03;;;-145.90;43.06
57562;BME280;43397;51.530;5.974;2023-04-29T10:00:15;75824.34;;;-145.90;42.24
57562;BME280;43397;51.530;5.974;2023-04-29T10:02:41;75793.94;;;-145.90;44.40
57562;BME280;43397;51.530;5.974;2023-04-29T10:05:08;75820.28;;;-145.90;43.21
57562;BME280;43397;51.530;5.974;2023-04-29T10:07:34;75810.16;;;-145.90;42.47
57562;BME280;43397;51.530;5.974;2023-04-29T10:10:06;75688.56;;;-145.90;42.87
57562;BME280;43397;51.530;5.974;2023-04-29T10:12:34;75723.00;;;-145.90;41.68
57562;BME280;43397;51.530;5.974;2023-04-29T10:15:02;75751.38;;;-145.90;41.03
57562;BME280;43397;51.530;5.974;2023-04-29T10:17:31;75753.41;;;-145.90;41.78
57562;BME280;43397;51.530;5.974;2023-04-29T10:20:02;75826.38;;;-145.90;43.44
57562;BME280;43397;51.530;5.974;2023-04-29T10:22:33;75759.50;;;-145.90;43.31
57562;BME280;43397;51.530;5.974;2023-04-29T10:25:00;75676.38;;;-145.90;41.39
57562;BME280;43397;51.530;5.974;2023-04-29T10:27:28;75755.44;;;-145.90;42.10
57562;BME280;43397;51.530;5.974;2023-04-29T10:29:55;75714.91;;;-145.90;42.56
57562;BME280;43397;51.530;5.974;2023-04-29T10:32:23;75783.81;;;-145.90;41.09
57562;BME280;43397;51.530;5.974;2023-04-29T10:34:51;75824.34;;;-145.90;42.83
57562;BME280;43397;51.530;5.974;2023-04-29T10:37:18;75733.13;;;-145.90;42.26
57562;BME280;43397;51.530;5.974;2023-04-29T10:39:49;75650.03;;;-145.90;41.09
57562;BME280;43397;51.530;5.974;2023-04-29T10:42:24;75556.81;;;-145.90;40.61
57562;BME280;43397;51.530;5.974;2023-04-29T10:45:22;75627.75;;;-145.90;41.44
57562;BME280;43397;51.530;5.974;2023-04-29T10:48:07;75467.66;;;-145.90;39.43
57562;BME280;43397;51.530;5.974;2023-04-29T10:50:34;75581.13;;;-145.90;38.91
57562;BME280;43397;51.530;5.974;2023-04-29T10:53:01;75538.56;;;-145.90;39.54
57562;BME280;43397;51.530;5.974;2023-04-29T10:55:26;75494.00;;;-145.90;40.52
57562;BME280;43397;51.530;5.974;2023-04-29T10:57:52;75577.09;;;-145.90;40.56
57562;BME280;43397;51.530;5.974;2023-04-29T11:00:26;75506.16;;;-145.90;38.67
57562;BME280;43397;51.530;5.974;2023-04-29T11:02:52;75374.41;;;-145.90;38.25
57562;BME280;43397;51.530;5.974;2023-04-29T11:05:28;75437.25;;;-145.90;36.53
57562;BME280;43397;51.530;5.974;2023-04-29T11:08:08;75560.88;;;-145.90;37.69
57562;BME280;43397;51.530;5.974;2023-04-29T11:10:35;75554.78;;;-145.90;39.05
57562;BME280;43397;51.530;5.974;2023-04-29T11:13:20;75477.78;;;-145.90;38.64
57562;BME280;43397;51.530;5.974;2023-04-29T11:15:47;75325.78;;;-145.90;37.69
57562;BME280;43397;51.530;5.974;2023-04-29T11:18:13;75267.03;;;-145.90;36.94
57562;BME280;43397;51.530;5.974;2023-04-29T11:21:11;75163.66;;;-145.90;36.85
57562;BME280;43397;51.530;5.974;2023-04-29T11:23:38;75339.97;;;-145.90;35.72
57562;BME280;43397;51.530;5.974;2023-04-29T11:26:04;75516.28;;;-145.90;38.36
57562;BME280;43397;51.530;5.974;2023-04-29T11:28:31;75435.22;;;-145.90;37.45
57562;BME280;43397;51.530;5.974;2023-04-29T11:30:59;75394.69;;;-145.90;37.43
57562;BME280;43397;51.530;5.974;2023-04-29T11:33:26;75619.63;;;-145.90;38.99
57562;BME280;43397;51.530;5.974;2023-04-29T11:35:52;75656.13;;;-145.90;40.16
57562;BME280;43397;51.530;5.974;2023-04-29T11:38:23;75631.81;;;-145.90;39.14
57562;BME280;43397;51.530;5.974;2023-04-29T11:40:49;75658.16;;;-145.90;37.92
57562;BME280;43397;51.530;5.974;2023-04-29T11:43:16;75550.75;;;-145.90;38.75
57562;BME280;43397;51.530;5.974;2023-04-29T11:45:43;75656.13;;;-145.90;36.88
57562;BME280;43397;51.530;5.974;2023-04-29T11:48:16;75613.56;;;-145.90;38.34
57562;BME280;43397;51.530;5.974;2023-04-29T11:50:42;75682.47;;;-145.90;37.60
57562;BME280;43397;51.530;5.974;2023-04-29T11:53:08;75500.06;;;-145.90;35.98
57562;BME280;43397;51.530;5.974;2023-04-29T11:55:33;75571.00;;;-145.90;36.88
57562;BME280;43397;51.530;5.974;2023-04-29T11:57:59;75611.53;;;-145.90;39.27
57562;BME280;43397;51.530;5.974;2023-04-29T12:00:25;75627.75;;;-145.90;37.88
57562;BME280;43397;51.530;5.974;2023-04-29T12:02:50;75546.69;;;-145.90;39.48
57562;BME280;43397;51.530;5.974;2023-04-29T12:05:18;75568.97;;;-145.90;38.40
57562;BME280;43397;51.530;5.974;2023-04-29T12:07:43;75595.31;;;-145.90;38.80
57562;BME280;43397;51.530;5.974;2023-04-29T12:10:10;75597.34;;;-145.90;38.61
57562;BME280;43397;51.530;5.974;2023-04-29T12:12:36;75540.59;;;-145.90;38.67
57562;BME280;43397;51.530;5.974;2023-04-29T12:15:02;75532.50;;;-145.90;37.68
57562;BME280;43397;51.530;5.974;2023-04-29T12:17:28;75534.53;;;-145.90;37.24
57562;BME280;43397;51.530;5.974;2023-04-29T12:19:54;75491.97;;;-145.90;36.68
57562;BME280;43397;51.530;5.974;2023-04-29T12:22:22;75662.19;;;-145.90;39.07
57562;BME280;43397;51.530;5.974;2023-04-29T12:24:47;75554.78;;;-145.90;38.17
57562;BME280;43397;51.530;5.974;2023-04-29T12:27:17;75544.66;;;-145.90;38.74
57562;BME280;43397;51.530;5.974;2023-04-29T12:29:42;75607.47;;;-145.90;37.81
57562;BME280;43397;51.530;5.974;2023-04-29T12:32:12;75611.53;;;-145.90;39.08
57562;BME280;43397;51.530;5.974;2023-04-29T12:34:41;75556.81;;;-145.90;37.69
57562;BME280;43397;51.530;5.974;2023-04-29T12:37:08;75627.75;;;-145.90;36.92
57562;BME280;43397;51.530;5.974;2023-04-29T12:39:35;75733.13;;;-145.90;40.56